Time;durP1;ratioP1;P1;durP2;ratioP2;P2;SDS_P1;SDS_P2;PMS_P1;PMS_P2;Temp;Humidity;BMP_temperature;BMP_pressure;BME280_temperature;BME280_humidity;BME280_pressure;Samples;Min_cycle;Max_cycle;Signal;HPM_P1;HPM_P2
2021/12/26 00:03:12;;;;;;;6.77;6.00;;;;;;;3.44;58.58;97099.00;8448258;28;20237;-70
2021/12/26 00:07:15;;;;;;;6.17;5.57;;;;;;;3.46;59.50;97100.63;8448574;28;20230;-69
2021/12/26 00:11:19;;;;;;;6.37;5.73;;;;;;;3.68;59.33;97097.44;8449828;28;20248;-70
2021/12/26 00:15:22;;;;;;;6.93;6.20;;;;;;;4.11;58.21;97104.63;8449576;28;20234;-69
2021/12/26 00:19:25;;;;;;;6.77;6.07;;;;;;;3.58;58.35;97109.69;8449272;28;20540;-69
2021/12/26 00:23:28;;;;;;;6.70;5.97;;;;;;;3.56;58.56;97105.47;8449650;28;20232;-69
2021/12/26 00:27:32;;;;;;;7.50;6.50;;;;;;;3.69;58.14;97102.53;8449207;28;20238;-70
2021/12/26 00:31:35;;;;;;;8.83;6.30;;;;;;;4.07;57.13;97105.63;8449190;28;20226;-70
2021/12/26 00:35:38;;;;;;;6.60;6.00;;;;;;;4.40;56.63;97114.78;8448642;28;20229;-69
2021/12/26 00:39:41;;;;;;;7.00;6.30;;;;;;;4.77;55.91;97123.81;8448659;28;20229;-69
2021/12/26 00:43:46;;;;;;;7.33;6.63;;;;;;;4.39;54.97;97116.53;8448911;28;20226;-69
2021/12/26 00:47:51;;;;;;;7.27;6.57;;;;;;;4.42;55.96;97113.03;8448345;28;20226;-70
2021/12/26 00:51:54;;;;;;;7.27;6.43;;;;;;;4.39;55.70;97124.22;8448253;28;20226;-69
2021/12/26 00:55:57;;;;;;;6.90;6.27;;;;;;;4.65;54.44;97128.47;8447942;28;20237;-69
2021/12/26 01:00:02;;;;;;;6.87;6.13;;;;;;;4.25;55.91;97116.97;8447800;28;20225;-69
2021/12/26 01:04:05;;;;;;;7.73;6.67;;;;;;;4.39;55.62;97116.53;8447739;28;20565;-69
2021/12/26 01:08:10;;;;;;;8.07;6.13;;;;;;;4.08;55.73;97116.69;8447103;28;20233;-70
2021/12/26 01:12:15;;;;;;;7.20;6.50;;;;;;;4.24;55.74;97114.47;8447432;28;20230;-69
2021/12/26 01:16:22;;;;;;;7.37;6.67;;;;;;;3.99;55.22;97129.78;8447322;28;20229;-70
2021/12/26 01:20:41;;;;;;;7.27;6.37;;;;;;;3.98;56.37;97133.22;8446984;28;20242;-70
2021/12/26 01:24:44;;;;;;;7.70;6.90;;;;;;;4.10;56.20;97117.47;8447221;28;20235;-69
2021/12/26 01:28:48;;;;;;;7.73;6.90;;;;;;;4.10;56.35;97109.78;8447082;28;20234;-70
2021/12/26 01:32:53;;;;;;;7.43;6.70;;;;;;;3.95;56.41;97107.72;8446964;28;20245;-69
2021/12/26 01:36:57;;;;;;;8.50;7.23;;;;;;;3.95;56.06;97123.09;8446932;28;20777;-69
2021/12/26 01:41:08;;;;;;;8.10;7.30;;;;;;;3.64;56.83;97121.47;8446836;28;20237;-70
2021/12/26 01:45:11;;;;;;;7.83;7.03;;;;;;;3.83;57.18;97117.47;8449141;28;20222;-69
2021/12/26 01:49:18;;;;;;;7.83;6.87;;;;;;;3.90;56.29;97120.66;8449169;28;20226;-69
2021/12/26 01:53:23;;;;;;;8.17;7.37;;;;;;;3.62;57.13;97129.19;8447456;28;20297;-70
2021/12/26 01:57:26;;;;;;;7.73;6.93;;;;;;;3.81;56.62;97126.06;8446694;28;20241;-69
2021/12/26 02:01:29;;;;;;;7.80;7.07;;;;;;;3.71;57.62;97128.91;8447012;28;20234;-69
2021/12/26 02:05:34;;;;;;;9.27;7.57;;;;;;;3.67;57.80;97127.31;8446558;28;20234;-69
2021/12/26 02:09:37;;;;;;;8.10;7.27;;;;;;;3.53;58.34;97134.59;8446504;28;20248;-70
2021/12/26 02:13:41;;;;;;;9.23;7.93;;;;;;;3.20;59.61;97132.13;8446365;28;20422;-70
2021/12/26 02:17:44;;;;;;;9.23;7.77;;;;;;;3.37;59.30;97129.09;8446187;28;20241;-69
2021/12/26 02:22:04;;;;;;;8.23;7.37;;;;;;;3.56;58.65;97136.19;8446315;28;20226;-70
2021/12/26 02:30:28;;;;;;;8.90;8.00;;;;;;;3.55;58.68;97125.13;8448347;28;20222;-69
2021/12/26 02:34:31;;;;;;;8.60;7.80;;;;;;;3.52;59.58;97130.34;8452399;28;20241;-70
2021/12/26 02:38:37;;;;;;;9.43;8.20;;;;;;;3.38;59.82;97123.06;8452509;28;20237;-70
2021/12/26 02:42:40;;;;;;;10.37;8.17;;;;;;;3.02;60.01;97130.06;8452149;28;20241;-69
2021/12/26 02:46:43;;;;;;;9.27;8.30;;;;;;;3.65;58.00;97123.13;8452345;28;20230;-69
2021/12/26 02:50:52;;;;;;;8.83;7.83;;;;;;;3.58;58.78;97117.38;8452264;28;20536;-69
2021/12/26 02:54:59;;;;;;;9.17;8.00;;;;;;;2.87;60.33;97114.25;8452076;28;20237;-69
2021/12/26 02:59:02;;;;;;;8.87;7.97;;;;;;;3.38;60.01;97099.19;8452061;28;20226;-69
2021/12/26 03:03:06;;;;;;;9.53;8.37;;;;;;;3.39;60.25;97099.16;8451790;28;20545;-69
2021/12/26 03:07:09;;;;;;;9.17;8.20;;;;;;;3.33;60.36;97096.75;8451175;28;20229;-70
2021/12/26 03:11:14;;;;;;;9.43;8.33;;;;;;;3.30;60.07;97099.44;8451546;28;20230;-70
2021/12/26 03:15:17;;;;;;;9.37;8.37;;;;;;;2.97;60.41;97106.31;8451202;28;20532;-69
2021/12/26 03:19:20;;;;;;;9.43;8.20;;;;;;;3.28;59.55;97103.75;8451251;28;20226;-70
2021/12/26 03:23:26;;;;;;;8.83;7.90;;;;;;;3.59;59.71;97105.41;8451062;28;20256;-69
2021/12/26 03:27:31;;;;;;;8.67;7.77;;;;;;;3.46;59.50;97103.19;8450708;28;20234;-69
2021/12/26 03:31:34;;;;;;;9.40;8.50;;;;;;;3.44;60.19;97109.25;8450356;28;20418;-69
2021/12/26 03:35:38;;;;;;;9.73;8.73;;;;;;;3.29;60.22;97105.41;8450846;28;20230;-69
2021/12/26 03:39:41;;;;;;;9.33;8.13;;;;;;;3.08;60.69;97107.69;8450512;28;20237;-70
2021/12/26 03:43:46;;;;;;;10.43;8.67;;;;;;;3.18;60.38;97105.75;8450013;28;20233;-69
2021/12/26 03:47:50;;;;;;;10.23;8.40;;;;;;;3.74;59.12;97098.97;8450264;28;20233;-70
2021/12/26 03:51:53;;;;;;;9.40;8.07;;;;;;;3.81;59.37;97095.31;8450102;28;20237;-69
2021/12/26 03:55:56;;;;;;;11.20;9.03;;;;;;;3.56;60.74;97101.22;8450130;28;20233;-70
2021/12/26 04:00:00;;;;;;;9.80;8.80;;;;;;;3.34;60.59;97106.13;8449619;28;20237;-69
2021/12/26 04:04:03;;;;;;;9.77;8.77;;;;;;;3.60;60.02;97099.38;8449518;28;20241;-69
2021/12/26 04:08:06;;;;;;;11.03;9.27;;;;;;;3.66;59.85;97110.28;8449532;28;20230;-69
2021/12/26 04:12:10;;;;;;;11.13;9.60;;;;;;;3.48;59.52;97108.28;8449132;28;20226;-70
2021/12/26 04:16:14;;;;;;;9.10;8.17;;;;;;;3.76;59.18;97113.41;8448951;28;20236;-69
2021/12/26 04:20:17;;;;;;;9.77;8.77;;;;;;;4.04;58.45;97098.00;8448942;28;20234;-69
2021/12/26 04:24:20;;;;;;;10.17;8.77;;;;;;;3.71;58.93;97105.88;8448950;28;20226;-69
2021/12/26 04:28:23;;;;;;;10.47;9.37;;;;;;;3.60;59.12;97107.06;8448757;28;20256;-70
2021/12/26 04:32:28;;;;;;;10.50;9.00;;;;;;;3.49;60.39;97105.66;8448827;28;20291;-69
2021/12/26 04:36:31;;;;;;;10.27;9.23;;;;;;;3.31;60.51;97114.75;8448739;28;20234;-69
2021/12/26 04:40:34;;;;;;;11.90;9.67;;;;;;;3.30;60.43;97110.50;8448176;28;20237;-69
2021/12/26 04:44:38;;;;;;;10.73;9.50;;;;;;;3.38;60.18;97105.16;8448643;28;20230;-69
2021/12/26 04:48:44;;;;;;;10.93;9.33;;;;;;;3.50;60.31;97101.38;8448305;28;20230;-70
2021/12/26 04:52:49;;;;;;;11.23;9.53;;;;;;;3.52;60.01;97117.53;8447675;28;20226;-70
2021/12/26 04:56:52;;;;;;;11.37;9.80;;;;;;;3.56;59.88;97113.16;8448385;28;20240;-70
2021/12/26 05:00:55;;;;;;;10.83;9.10;;;;;;;3.56;59.56;97121.69;8448231;28;20226;-70
2021/12/26 05:04:59;;;;;;;12.07;9.63;;;;;;;3.50;59.66;97122.72;8447969;28;20237;-69
2021/12/26 05:09:03;;;;;;;10.13;9.03;;;;;;;3.41;60.06;97127.25;8448056;28;20230;-69
2021/12/26 05:13:06;;;;;;;10.93;9.70;;;;;;;3.59;60.01;97118.19;8447523;28;20332;-69
2021/12/26 05:17:09;;;;;;;10.73;9.43;;;;;;;3.51;59.84;97121.81;8447621;28;20230;-70
2021/12/26 05:21:13;;;;;;;10.43;9.33;;;;;;;3.52;59.94;97120.94;8447682;28;20541;-70
2021/12/26 05:25:16;;;;;;;11.70;9.50;;;;;;;3.55;59.79;97111.50;8447810;28;20248;-70
2021/12/26 05:29:19;;;;;;;13.30;9.50;;;;;;;3.70;60.19;97111.03;8447683;28;20238;-70
2021/12/26 05:33:22;;;;;;;10.67;9.43;;;;;;;3.47;60.49;97109.16;8447293;28;20225;-70
2021/12/26 05:37:27;;;;;;;10.80;9.70;;;;;;;3.53;60.39;97108.97;8446860;28;20241;-69
2021/12/26 05:41:32;;;;;;;10.10;9.10;;;;;;;3.51;60.24;97106.47;8447137;28;20242;-69
2021/12/26 05:45:35;;;;;;;10.70;9.33;;;;;;;3.54;60.25;97102.97;8447167;28;20524;-70
2021/12/26 05:49:38;;;;;;;10.30;9.30;;;;;;;3.31;61.43;97108.75;8446922;28;20230;-69
2021/12/26 05:53:43;;;;;;;11.40;9.53;;;;;;;3.21;61.03;97117.59;8446884;28;20547;-69
2021/12/26 05:57:46;;;;;;;11.40;9.20;;;;;;;3.29;61.30;97110.53;8446769;28;20241;-69
2021/12/26 06:01:49;;;;;;;12.27;9.67;;;;;;;3.43;60.99;97112.72;8447008;28;20226;-69
2021/12/26 06:05:53;;;;;;;10.53;9.43;;;;;;;3.99;59.58;97109.28;8451534;28;20234;-69
2021/12/26 06:09:57;;;;;;;10.87;9.67;;;;;;;3.99;59.10;97115.25;8453355;28;20237;-69
2021/12/26 06:14:00;;;;;;;10.63;9.53;;;;;;;4.13;59.15;97119.09;8453323;28;20226;-69
2021/12/26 06:18:03;;;;;;;10.47;9.37;;;;;;;4.40;58.24;97119.91;8453402;28;20411;-69
2021/12/26 06:22:07;;;;;;;10.20;9.17;;;;;;;4.35;57.71;97117.50;8453174;28;20226;-69
2021/12/26 06:26:12;;;;;;;11.27;10.07;;;;;;;3.85;59.34;97114.84;8452073;28;20226;-70
2021/12/26 06:30:15;;;;;;;10.10;9.07;;;;;;;4.02;59.49;97117.72;8452949;28;20238;-69
2021/12/26 06:34:18;;;;;;;13.17;11.80;;;;;;;3.68;60.16;97113.63;8452913;28;20226;-70
2021/12/26 06:38:21;;;;;;;11.87;10.53;;;;;;;3.82;60.12;97114.94;8452412;28;20230;-69
2021/12/26 06:42:27;;;;;;;12.27;10.80;;;;;;;3.85;60.03;97118.25;8452221;28;20226;-69
2021/12/26 06:46:29;;;;;;;11.63;10.47;;;;;;;3.60;60.69;97115.59;8452117;28;20398;-69
2021/12/26 06:50:33;;;;;;;12.00;10.70;;;;;;;3.66;60.03;97117.97;8452644;28;20404;-69
2021/12/26 06:54:36;;;;;;;11.80;9.97;;;;;;;3.37;61.89;97115.44;8451405;28;20233;-69
2021/12/26 06:58:41;;;;;;;14.30;11.33;;;;;;;3.50;61.84;97109.91;8451268;28;20423;-69
2021/12/26 07:02:44;;;;;;;12.27;10.97;;;;;;;3.88;60.54;97110.47;8451395;28;20233;-69
2021/12/26 07:06:48;;;;;;;13.23;11.50;;;;;;;3.84;60.72;97120.84;8451516;28;20572;-69
2021/12/26 07:10:51;;;;;;;11.60;10.40;;;;;;;3.87;60.67;97128.44;8451473;28;20226;-69
2021/12/26 07:14:55;;;;;;;14.60;12.13;;;;;;;3.73;60.85;97141.66;8450824;28;20236;-69
2021/12/26 07:18:58;;;;;;;13.87;11.60;;;;;;;3.59;61.35;97136.97;8450904;28;20230;-69
2021/12/26 07:23:01;;;;;;;12.73;11.07;;;;;;;3.76;61.02;97139.00;8451138;28;20405;-69
2021/12/26 07:27:05;;;;;;;14.90;11.30;;;;;;;3.75;60.77;97141.63;8450997;28;20241;-69
2021/12/26 07:31:10;;;;;;;19.07;17.00;;;;;;;3.76;61.02;97140.75;8450438;28;20233;-70
2021/12/26 07:35:13;;;;;;;17.03;14.57;;;;;;;3.88;60.63;97148.91;8450602;28;20226;-70
2021/12/26 07:39:16;;;;;;;13.10;11.70;;;;;;;3.71;61.32;97143.44;8450427;28;20248;-69
2021/12/26 07:43:19;;;;;;;13.30;11.93;;;;;;;3.90;60.59;97139.44;8450255;28;20233;-69
2021/12/26 07:47:24;;;;;;;13.63;12.20;;;;;;;3.81;61.44;97139.72;8450296;28;20407;-70
2021/12/26 07:51:27;;;;;;;12.40;10.97;;;;;;;4.12;60.78;97151.56;8450159;28;20316;-69
2021/12/26 07:55:29;;;;;;;13.17;11.67;;;;;;;3.75;60.88;97146.75;8450264;28;20225;-70
2021/12/26 07:59:32;;;;;;;13.53;12.13;;;;;;;3.59;61.60;97151.47;8449586;28;20237;-69
2021/12/26 08:03:37;;;;;;;15.90;14.30;;;;;;;3.73;61.38;97164.69;8449650;28;20425;-69
2021/12/26 08:07:40;;;;;;;15.27;13.60;;;;;;;3.85;61.38;97164.34;8449615;28;20413;-71
2021/12/26 08:11:43;;;;;;;14.20;12.70;;;;;;;4.11;61.26;97161.00;8449738;28;20233;-69
2021/12/26 08:15:47;;;;;;;14.13;12.67;;;;;;;3.81;61.60;97157.66;8449094;28;20237;-69
2021/12/26 08:19:51;;;;;;;15.37;13.77;;;;;;;3.72;62.02;97166.44;8449186;28;20258;-69
2021/12/26 08:23:54;;;;;;;14.80;13.27;;;;;;;3.82;62.18;97168.72;8449124;28;20229;-72
2021/12/26 08:27:57;;;;;;;14.33;12.80;;;;;;;3.87;61.52;97172.81;8448415;28;20548;-69
2021/12/26 08:32:00;;;;;;;18.13;13.40;;;;;;;4.50;60.31;97170.00;8448843;28;20559;-69
2021/12/26 08:36:06;;;;;;;15.70;12.70;;;;;;;4.24;60.79;97181.94;8448480;28;20233;-69
2021/12/26 08:40:10;;;;;;;15.27;13.27;;;;;;;4.03;61.14;97178.31;8448066;28;20229;-70
2021/12/26 08:44:16;;;;;;;14.93;13.37;;;;;;;3.81;61.76;97173.03;8448782;28;20226;-70
2021/12/26 08:48:20;;;;;;;14.43;12.93;;;;;;;3.81;62.21;97179.84;8448767;28;20230;-69
2021/12/26 08:52:24;;;;;;;18.23;15.57;;;;;;;4.22;61.29;97181.13;8448575;28;20226;-70
2021/12/26 08:56:27;;;;;;;15.27;13.03;;;;;;;3.99;61.85;97181.03;8448415;28;20245;-70
2021/12/26 09:00:32;;;;;;;18.87;16.87;;;;;;;3.84;62.88;97172.06;8448205;28;20509;-71
2021/12/26 09:04:35;;;;;;;17.70;15.90;;;;;;;3.35;64.04;97174.34;8447865;28;20230;-70
2021/12/26 09:08:40;;;;;;;16.10;14.43;;;;;;;3.55;64.58;97178.06;8447887;28;20226;-71
2021/12/26 09:12:43;;;;;;;15.63;13.93;;;;;;;3.88;63.11;97177.06;8447733;28;20238;-70
2021/12/26 09:16:46;;;;;;;16.03;14.33;;;;;;;4.00;62.56;97187.81;8447665;28;20236;-71
2021/12/26 09:20:49;;;;;;;16.00;13.37;;;;;;;3.94;63.28;97186.31;8447728;28;20529;-70
2021/12/26 09:24:53;;;;;;;16.47;14.87;;;;;;;3.89;63.48;97180.47;8447481;28;20233;-70
2021/12/26 09:28:56;;;;;;;15.03;13.53;;;;;;;3.84;64.24;97178.03;8447720;28;20238;-70
2021/12/26 09:32:59;;;;;;;19.90;17.00;;;;;;;3.41;65.80;97181.84;8447657;28;20230;-70
2021/12/26 09:37:03;;;;;;;15.40;13.77;;;;;;;4.10;63.19;97189.22;8447564;28;20436;-70
2021/12/26 09:41:08;;;;;;;15.77;14.20;;;;;;;3.64;65.00;97191.44;8447271;28;20230;-70
2021/12/26 09:45:11;;;;;;;19.20;15.83;;;;;;;3.85;64.45;97197.66;8446906;28;20229;-70
2021/12/26 09:49:14;;;;;;;24.37;21.77;;;;;;;3.89;64.73;97191.53;8447614;28;20238;-71
2021/12/26 09:53:17;;;;;;;21.50;19.20;;;;;;;3.67;65.08;97186.22;8447444;28;20249;-70
2021/12/26 09:57:23;;;;;;;20.60;17.97;;;;;;;3.65;65.95;97185.41;8447405;28;20230;-70
2021/12/26 10:01:32;;;;;;;19.77;17.60;;;;;;;3.58;65.32;97178.81;8447182;28;20234;-70
2021/12/26 10:05:55;;;;;;;22.23;18.97;;;;;;;3.75;65.14;97174.91;8447122;28;20234;-70
2021/12/26 10:09:58;;;;;;;20.73;18.33;;;;;;;3.65;65.90;97169.22;8446733;28;20575;-70
2021/12/26 10:14:06;;;;;;;28.43;20.73;;;;;;;3.82;65.51;97164.44;8446468;28;20230;-70
2021/12/26 10:18:30;;;;;;;21.70;18.77;;;;;;;3.77;65.35;97156.06;8446068;28;20229;-71
2021/12/26 10:22:33;;;;;;;17.47;15.27;;;;;;;3.69;65.19;97163.13;8446550;28;20533;-71
2021/12/26 10:26:38;;;;;;;18.80;15.57;;;;;;;3.73;66.45;97159.59;8446504;28;20238;-70
2021/12/26 10:30:44;;;;;;;35.27;25.03;;;;;;;3.96;65.87;97153.78;8446620;28;20238;-70
2021/12/26 10:34:48;;;;;;;18.73;16.17;;;;;;;3.85;65.72;97153.28;8446365;28;20238;-70
2021/12/26 10:39:08;;;;;;;18.83;16.37;;;;;;;3.84;66.05;97143.91;8446198;28;20234;-70
2021/12/26 10:43:12;;;;;;;17.60;15.70;;;;;;;3.72;67.08;97143.38;8445658;28;20517;-70
2021/12/26 10:47:18;;;;;;;17.43;15.63;;;;;;;3.86;66.64;97132.72;8446217;28;20560;-71
2021/12/26 10:51:34;;;;;;;17.93;16.00;;;;;;;3.89;66.44;97135.19;8448161;28;20561;-70
2021/12/26 10:55:38;;;;;;;19.30;16.53;;;;;;;3.43;67.85;97139.13;8452150;28;20260;-70
2021/12/26 10:59:44;;;;;;;18.23;15.67;;;;;;;3.79;66.73;97131.25;8452185;28;20278;-71
2021/12/26 11:03:49;;;;;;;18.77;16.10;;;;;;;4.24;65.55;97127.28;8451912;28;20234;-70
2021/12/26 11:07:56;;;;;;;17.70;14.87;;;;;;;4.07;66.30;97133.78;8451915;28;20237;-70
2021/12/26 11:12:04;;;;;;;17.90;15.43;;;;;;;4.21;65.25;97124.84;8451866;28;20226;-70
2021/12/26 11:16:08;;;;;;;16.37;14.60;;;;;;;4.22;64.73;97119.63;8450926;28;20221;-71
2021/12/26 11:20:23;;;;;;;15.93;14.33;;;;;;;4.35;65.22;97119.25;8451070;28;20253;-70
2021/12/26 11:24:26;;;;;;;60.80;38.57;;;;;;;4.43;65.37;97117.25;8451262;28;20226;-70
2021/12/26 11:28:31;;;;;;;34.63;22.90;;;;;;;4.24;64.75;97109.34;8450729;28;20246;-70
2021/12/26 11:32:33;;;;;;;40.07;26.10;;;;;;;4.29;64.98;97123.69;8450745;28;20576;-70
2021/12/26 11:36:38;;;;;;;17.17;15.20;;;;;;;4.18;65.39;97125.75;8450554;28;20233;-70
2021/12/26 11:40:42;;;;;;;16.43;14.40;;;;;;;4.01;65.18;97112.63;8450414;28;20234;-70
2021/12/26 11:45:07;;;;;;;15.97;14.27;;;;;;;4.42;64.16;97110.47;8450244;28;20230;-70
2021/12/26 11:49:37;;;;;;;15.77;14.10;;;;;;;3.86;65.65;97104.53;8449847;28;20296;-71
2021/12/26 11:54:03;;;;;;;18.73;16.20;;;;;;;4.14;65.58;97098.56;8450110;28;20229;-71
2021/12/26 11:58:23;;;;;;;20.27;16.27;;;;;;;4.41;64.73;97095.97;8450022;28;20237;-70
2021/12/26 12:02:37;;;;;;;18.30;15.40;;;;;;;4.48;63.69;97098.28;8449395;28;20229;-71
2021/12/26 12:06:40;;;;;;;18.57;15.73;;;;;;;4.29;64.02;97102.34;8449431;28;20291;-70
2021/12/26 12:10:48;;;;;;;21.50;15.60;;;;;;;4.23;64.40;97097.44;8449731;28;20420;-70
2021/12/26 12:14:55;;;;;;;16.73;14.87;;;;;;;4.28;64.50;97092.97;8449316;28;20238;-70
2021/12/26 12:19:04;;;;;;;16.63;14.83;;;;;;;4.38;64.26;97090.94;8449411;28;20288;-70
2021/12/26 12:23:15;;;;;;;15.63;14.03;;;;;;;4.31;64.42;97088.56;8448830;28;20328;-71
2021/12/26 12:27:22;;;;;;;17.50;15.13;;;;;;;4.42;64.64;97083.09;8449119;28;20521;-70
2021/12/26 12:31:25;;;;;;;16.33;14.60;;;;;;;4.38;65.08;97078.97;8448695;28;20230;-71
2021/12/26 12:35:48;;;;;;;17.90;16.00;;;;;;;4.75;63.35;97074.28;8448605;28;20233;-70
2021/12/26 12:40:07;;;;;;;18.63;15.37;;;;;;;4.76;63.55;97087.06;8448566;28;20230;-71
2021/12/26 12:44:33;;;;;;;17.33;15.53;;;;;;;4.58;63.17;97082.56;8448404;28;20233;-70
2021/12/26 12:48:40;;;;;;;18.17;15.13;;;;;;;4.47;63.92;97080.38;8448300;28;20241;-70
2021/12/26 12:52:50;;;;;;;16.13;14.43;;;;;;;4.00;64.79;97087.88;8448661;28;20225;-70
2021/12/26 12:56:53;;;;;;;16.30;14.60;;;;;;;4.28;64.63;97083.56;8447996;28;20560;-70
2021/12/26 13:00:57;;;;;;;16.73;14.93;;;;;;;3.92;65.25;97081.31;8448511;28;20536;-70
2021/12/26 13:05:00;;;;;;;20.43;15.90;;;;;;;4.27;64.66;97081.06;8448150;28;20302;-70
2021/12/26 13:09:03;;;;;;;15.80;14.10;;;;;;;4.17;64.21;97082.22;8447815;28;20245;-70
2021/12/26 13:13:08;;;;;;;16.37;14.57;;;;;;;4.36;64.16;97074.75;8447029;28;20431;-70
2021/12/26 13:17:15;;;;;;;15.27;13.60;;;;;;;4.35;64.14;97078.22;8480806;28;20258;-70
2021/12/26 13:21:19;;;;;;;15.83;14.20;;;;;;;4.18;64.63;97069.38;8480740;28;20225;-71
2021/12/26 13:25:27;;;;;;;14.50;13.00;;;;;;;4.66;63.54;97072.88;8480883;28;20274;-70
2021/12/26 13:29:30;;;;;;;17.33;14.10;;;;;;;4.35;63.77;97080.78;8480573;28;20290;-70
2021/12/26 13:33:35;;;;;;;15.70;14.00;;;;;;;4.47;63.80;97080.38;8480852;28;20224;-71
2021/12/26 13:37:39;;;;;;;23.60;17.90;;;;;;;4.40;63.95;97079.75;8480796;28;20419;-70
2021/12/26 13:41:45;;;;;;;20.27;17.63;;;;;;;4.59;63.17;97077.41;8480411;28;20236;-70
2021/12/26 13:45:53;;;;;;;17.67;15.73;;;;;;;4.48;63.14;97075.19;8480643;28;20544;-71
2021/12/26 13:50:08;;;;;;;29.10;24.37;;;;;;;4.38;63.41;97071.28;8480613;28;20235;-70
2021/12/26 13:54:23;;;;;;;35.00;28.27;;;;;;;4.13;64.66;97067.84;8479986;28;20229;-71
2021/12/26 13:58:28;;;;;;;18.27;15.40;;;;;;;3.85;65.45;97074.69;8480375;28;20226;-70
2021/12/26 14:02:33;;;;;;;18.67;16.77;;;;;;;3.98;65.16;97076.84;8480446;28;20262;-70
2021/12/26 14:06:38;;;;;;;26.93;22.63;;;;;;;4.06;64.64;97075.75;8480387;28;20229;-70
2021/12/26 14:10:41;;;;;;;18.20;15.73;;;;;;;4.40;64.06;97079.75;8480322;28;20416;-70
2021/12/26 14:14:44;;;;;;;17.93;16.03;;;;;;;4.29;63.69;97080.09;8480356;28;20232;-70
2021/12/26 14:18:47;;;;;;;19.97;15.13;;;;;;;4.29;64.24;97076.72;8480683;28;20229;-70
2021/12/26 14:22:51;;;;;;;25.70;19.40;;;;;;;4.22;64.36;97078.63;8480504;28;20226;-70
2021/12/26 14:26:54;;;;;;;16.27;14.33;;;;;;;3.95;65.07;97082.09;8482379;28;20229;-70
2021/12/26 14:31:01;;;;;;;16.47;14.67;;;;;;;4.11;64.93;97078.13;8486517;28;20229;-71
2021/12/26 14:35:04;;;;;;;17.17;15.27;;;;;;;4.33;63.95;97080.00;8486474;28;20277;-70
2021/12/26 14:39:08;;;;;;;17.27;15.33;;;;;;;4.49;63.44;97079.44;8485814;28;20512;-72
2021/12/26 14:43:11;;;;;;;20.70;18.47;;;;;;;4.36;63.72;97085.00;8485749;28;20232;-70
2021/12/26 14:47:17;;;;;;;19.63;17.60;;;;;;;4.47;64.18;97091.47;8486143;28;20225;-71
2021/12/26 14:51:25;;;;;;;18.57;15.57;;;;;;;4.47;63.28;97086.34;8485700;28;20229;-70
2021/12/26 14:55:32;;;;;;;20.27;17.43;;;;;;;4.43;63.67;97094.19;8485647;28;20416;-70
2021/12/26 14:59:37;;;;;;;19.50;17.50;;;;;;;4.61;63.09;97090.16;8485425;28;20248;-70
2021/12/26 15:03:40;;;;;;;36.17;30.40;;;;;;;4.60;63.21;97097.00;8485056;28;20233;-70
2021/12/26 15:07:45;;;;;;;18.50;16.57;;;;;;;4.76;62.71;97094.78;8485355;28;20225;-70
2021/12/26 15:11:49;;;;;;;19.60;17.50;;;;;;;4.38;63.70;97094.34;8485138;28;20229;-71
2021/12/26 15:15:53;;;;;;;22.83;20.30;;;;;;;4.48;63.46;97097.44;8485455;28;20226;-70
2021/12/26 15:19:56;;;;;;;16.93;14.00;;;;;;;4.68;62.41;97091.63;8484955;28;20229;-70
2021/12/26 15:24:05;;;;;;;16.00;14.20;;;;;;;4.33;63.69;97092.81;8484901;28;20226;-70
2021/12/26 15:28:12;;;;;;;18.37;16.47;;;;;;;4.28;63.81;97087.84;8484158;28;20225;-70
2021/12/26 15:32:16;;;;;;;20.57;17.63;;;;;;;4.43;63.19;97089.06;8484035;28;20229;-72
2021/12/26 15:36:20;;;;;;;39.50;27.43;;;;;;;4.56;63.65;97082.63;8483314;28;20298;-73
2021/12/26 15:40:24;;;;;;;30.73;27.30;;;;;;;4.42;63.35;97085.66;8483321;28;20229;-69
2021/12/26 15:44:28;;;;;;;22.20;19.37;;;;;;;4.09;64.52;97091.03;8484294;28;22342;-69
2021/12/26 15:48:33;;;;;;;16.53;14.83;;;;;;;4.14;64.67;97083.16;8479747;28;20222;-69
2021/12/26 15:52:36;;;;;;;14.87;13.27;;;;;;;3.89;64.53;97078.84;8442339;28;20226;-69
2021/12/26 15:56:39;;;;;;;18.27;14.10;;;;;;;3.82;65.39;97079.91;8448767;28;20287;-68
2021/12/26 16:00:44;;;;;;;15.63;13.47;;;;;;;3.79;65.80;97087.72;8446990;28;20236;-70
2021/12/26 16:04:47;;;;;;;17.80;14.07;;;;;;;3.90;64.87;97090.78;8448449;28;20537;-70
2021/12/26 16:08:50;;;;;;;15.80;13.70;;;;;;;3.97;64.97;97090.56;8448213;28;20222;-70
2021/12/26 16:12:53;;;;;;;14.80;13.30;;;;;;;3.79;65.72;97091.97;8443582;28;20249;-70
2021/12/26 16:16:57;;;;;;;19.20;14.90;;;;;;;4.03;65.20;97098.88;8439475;28;20237;-70
2021/12/26 16:21:01;;;;;;;16.10;14.40;;;;;;;3.95;64.98;97095.75;8441279;28;20236;-70
2021/12/26 16:25:05;;;;;;;16.90;14.47;;;;;;;3.89;65.74;97089.09;8443930;28;20529;-70
2021/12/26 16:29:10;;;;;;;14.83;13.33;;;;;;;4.02;64.86;97089.53;8440575;28;20218;-71
2021/12/26 16:33:15;;;;;;;15.53;13.13;;;;;;;4.18;64.31;97097.56;8447226;28;20226;-67
2021/12/26 16:37:18;;;;;;;17.73;14.50;;;;;;;4.01;64.90;97094.72;8446737;28;20225;-66
2021/12/26 16:41:21;;;;;;;17.50;15.40;;;;;;;4.35;64.04;97091.03;8445943;28;20233;-66
2021/12/26 16:45:25;;;;;;;19.33;16.83;;;;;;;3.94;65.44;97093.22;8429609;28;20230;-66
2021/12/26 16:49:29;;;;;;;19.17;16.30;;;;;;;4.19;64.50;97089.00;8451907;28;20396;-67
2021/12/26 16:53:32;;;;;;;15.73;14.13;;;;;;;4.11;64.35;97090.94;8457309;28;20421;-66
2021/12/26 16:57:35;;;;;;;17.07;14.93;;;;;;;4.18;64.47;97095.00;8455484;28;20229;-66
2021/12/26 17:01:39;;;;;;;15.77;14.00;;;;;;;4.39;63.71;97090.88;8446268;28;20230;-66
2021/12/26 17:05:44;;;;;;;14.97;13.13;;;;;;;4.45;63.86;97085.53;8459883;28;20225;-66
2021/12/26 17:09:47;;;;;;;17.80;14.70;;;;;;;4.04;64.52;97079.25;8465544;28;20245;-66
2021/12/26 17:13:50;;;;;;;17.80;15.17;;;;;;;4.00;65.20;97073.38;8473960;28;20221;-67
2021/12/26 17:17:53;;;;;;;17.58;15.88;;;;;;;4.33;63.87;97085.97;8468686;28;20405;-66
2021/12/26 17:22:00;;;;;;;16.87;14.40;;;;;;;4.17;64.34;97083.09;8477765;28;20232;-68
2021/12/26 17:26:03;;;;;;;15.27;13.63;;;;;;;3.73;66.14;97087.88;8467917;28;20246;-67
2021/12/26 17:30:10;;;;;;;17.13;13.90;;;;;;;3.88;65.62;97084.00;8469281;28;20300;-66
2021/12/26 17:34:18;;;;;;;33.73;25.13;;;;;;;3.89;65.03;97083.97;8472939;28;20224;-67
2021/12/26 17:38:23;;;;;;;23.23;17.73;;;;;;;3.98;65.44;97085.41;8472972;28;20289;-68
2021/12/26 17:42:25;;;;;;;16.23;14.47;;;;;;;4.00;65.08;97088.75;8466709;28;20230;-67
2021/12/26 17:46:32;;;;;;;18.07;13.77;;;;;;;4.19;64.85;97094.13;8473130;28;20232;-67
2021/12/26 17:50:35;;;;;;;16.03;14.10;;;;;;;4.19;65.03;97089.00;8469698;28;20233;-67
2021/12/26 17:55:02;;;;;;;17.80;14.73;;;;;;;4.19;64.58;97090.69;8475403;28;20228;-67
2021/12/26 17:59:05;;;;;;;19.17;15.53;;;;;;;3.56;66.63;97077.31;8476249;28;20228;-68
2021/12/26 18:03:08;;;;;;;16.90;14.97;;;;;;;4.08;65.60;97075.69;8481047;28;20221;-67
2021/12/26 18:07:11;;;;;;;18.43;14.77;;;;;;;4.11;65.44;97078.13;8482543;28;20229;-67
2021/12/26 18:11:15;;;;;;;17.27;14.60;;;;;;;4.16;65.33;97088.25;8482817;28;20287;-67
2021/12/26 18:15:20;;;;;;;16.73;14.07;;;;;;;4.46;64.23;97081.28;8455840;28;20222;-67
2021/12/26 18:19:23;;;;;;;20.63;16.60;;;;;;;4.33;64.41;97082.56;8481113;28;20225;-67
2021/12/26 18:23:26;;;;;;;19.33;16.40;;;;;;;4.22;64.93;97073.50;8481969;28;20238;-67
2021/12/26 18:27:31;;;;;;;23.03;18.03;;;;;;;3.73;66.47;97069.94;8478029;28;20271;-68
2021/12/26 18:31:34;;;;;;;22.27;17.73;;;;;;;4.04;65.92;97069.81;8475162;28;20226;-67
2021/12/26 18:35:37;;;;;;;20.50;17.10;;;;;;;3.78;66.40;97069.81;8473045;28;20229;-67
2021/12/26 18:39:40;;;;;;;20.40;17.63;;;;;;;4.16;65.32;97065.19;8476198;28;20225;-68
2021/12/26 18:43:44;;;;;;;19.40;16.23;;;;;;;3.84;66.25;97077.31;8479517;28;20249;-68
2021/12/26 18:47:47;;;;;;;19.67;16.93;;;;;;;3.99;65.94;97073.44;8479785;28;20225;-67
2021/12/26 18:51:50;;;;;;;20.73;17.43;;;;;;;3.75;67.12;97067.34;8479466;28;20236;-67
2021/12/26 18:55:53;;;;;;;20.90;16.70;;;;;;;4.00;65.17;97072.53;8456508;28;20230;-68
2021/12/26 18:59:57;;;;;;;20.53;17.07;;;;;;;4.08;65.67;97068.00;8461957;28;20233;-67
2021/12/26 19:04:01;;;;;;;20.63;16.93;;;;;;;3.98;65.75;97064.91;8484027;28;20546;-63
2021/12/26 19:08:04;;;;;;;19.20;16.37;;;;;;;4.20;64.99;97069.31;8484277;28;20232;-63
2021/12/26 19:12:09;;;;;;;18.33;16.40;;;;;;;3.87;66.79;97062.69;8446998;28;20229;-64